Time;durP1;ratioP1;P1;durP2;ratioP2;P2;SDS_P1;SDS_P2;PMS_P1;PMS_P2;Temp;Humidity;BMP_temperature;BMP_pressure;BME280_temperature;BME280_humidity;BME280_pressure;Samples;Min_cycle;Max_cycle;Signal;HPM_P1;HPM_P2
2022/08/20 00:01:47;;;;;;;17.90;14.18;;;18.00;99.90;;;;;;5097718;28;20067;-65
2022/08/20 00:04:17;;;;;;;19.20;14.45;;;18.00;99.90;;;;;;5108639;28;20143;-65
2022/08/20 00:06:45;;;;;;;17.52;14.35;;;18.00;99.90;;;;;;5114013;28;20047;-64
2022/08/20 00:09:20;;;;;;;19.38;14.65;;;17.90;99.90;;;;;;5101965;28;20063;-64
2022/08/20 00:11:48;;;;;;;17.85;14.18;;;17.90;99.90;;;;;;5097914;27;20122;-64
2022/08/20 00:14:16;;;;;;;16.88;14.00;;;17.90;99.90;;;;;;5112438;28;20590;-64
2022/08/20 00:16:44;;;;;;;20.27;14.88;;;17.90;99.90;;;;;;5109180;28;20590;-64
2022/08/20 00:19:12;;;;;;;18.02;14.77;;;17.90;99.90;;;;;;5107650;28;20043;-65
2022/08/20 00:21:40;;;;;;;17.63;14.10;;;17.80;99.90;;;;;;5117713;27;20039;-64
2022/08/20 00:24:08;;;;;;;20.23;14.95;;;17.80;99.90;;;;;;5120154;27;20039;-64
2022/08/20 00:26:35;;;;;;;18.52;15.10;;;17.80;99.90;;;;;;5124111;27;20042;-64
2022/08/20 00:29:18;;;;;;;20.70;16.05;;;17.80;99.90;;;;;;5125834;27;20425;-63
2022/08/20 00:31:46;;;;;;;19.27;15.00;;;17.80;99.90;;;;;;5116467;27;20043;-64
2022/08/20 00:34:15;;;;;;;19.85;15.68;;;17.80;99.90;;;;;;5114634;27;20043;-64
2022/08/20 00:36:42;;;;;;;20.27;15.27;;;17.80;99.90;;;;;;5117358;27;20483;-64
2022/08/20 00:39:10;;;;;;;20.38;15.43;;;17.80;99.90;;;;;;5128049;27;20043;-63
2022/08/20 00:41:38;;;;;;;19.38;15.95;;;17.80;99.90;;;;;;5127881;27;20431;-64
2022/08/20 00:44:13;;;;;;;19.83;14.80;;;17.80;99.90;;;;;;5126717;27;20374;-64
2022/08/20 00:46:45;;;;;;;19.13;15.40;;;17.80;99.90;;;;;;5106073;27;20443;-65
2022/08/20 00:49:16;;;;;;;;;;;17.80;99.90;;;;;;5114309;27;20684;-65
2022/08/20 00:51:49;;;;;;;24.73;16.48;;;17.80;99.90;;;;;;5106602;27;19927;-64
2022/08/20 00:54:23;;;;;;;23.98;17.52;;;17.80;99.90;;;;;;5109716;27;20039;-64
2022/08/20 00:57:07;;;;;;;22.02;17.48;;;17.80;99.90;;;;;;5101894;27;20513;-65
2022/08/20 00:59:38;;;;;;;22.13;16.95;;;17.80;99.90;;;;;;5108808;27;20044;-64
2022/08/20 01:02:11;;;;;;;23.80;17.17;;;17.80;99.90;;;;;;5099087;27;20054;-64
2022/08/20 01:04:39;;;;;;;21.75;17.40;;;17.80;99.90;;;;;;5109561;27;20112;-67
2022/08/20 01:07:11;;;;;;;22.90;18.15;;;17.80;99.90;;;;;;5101865;27;20051;-64
2022/08/20 01:09:41;;;;;;;21.17;16.25;;;17.80;99.90;;;;;;5114197;27;20044;-64
2022/08/20 01:12:28;;;;;;;21.83;16.25;;;17.80;99.90;;;;;;5101022;27;20484;-64
2022/08/20 01:14:58;;;;;;;26.10;18.73;;;17.80;99.90;;;;;;5107838;27;20376;-64
2022/08/20 01:17:31;;;;;;;22.63;17.65;;;17.80;99.90;;;;;;5102039;27;20051;-64
2022/08/20 01:20:10;;;;;;;23.45;17.35;;;17.80;99.90;;;;;;5117502;27;20047;-65
2022/08/20 01:25:52;;;;;;;22.08;16.35;;;17.80;99.90;;;;;;5113146;27;20496;-64
2022/08/20 01:28:43;;;;;;;22.90;17.73;;;17.70;99.90;;;;;;5126636;27;20099;-64
2022/08/20 01:31:18;;;;;;;21.85;17.00;;;17.80;99.90;;;;;;5113867;27;20509;-64
2022/08/20 01:33:48;;;;;;;22.00;16.67;;;17.80;99.90;;;;;;5114077;27;20431;-65
2022/08/20 01:36:17;;;;;;;22.02;16.38;;;17.70;99.90;;;;;;5091392;28;20046;-64
2022/08/20 01:38:45;;;;;;;20.70;15.80;;;17.80;99.90;;;;;;5109145;27;20540;-64
2022/08/20 01:41:20;;;;;;;20.30;15.82;;;17.80;99.90;;;;;;5110828;27;20055;-64
2022/08/20 01:43:56;;;;;;;20.52;16.08;;;17.70;99.90;;;;;;5107446;27;20039;-64
2022/08/20 01:46:38;;;;;;;20.05;16.13;;;17.80;99.90;;;;;;5102019;27;20046;-64
2022/08/20 01:49:27;;;;;;;18.10;15.25;;;17.80;99.90;;;;;;5116017;27;20394;-64
2022/08/20 01:51:59;;;;;;;18.95;14.65;;;17.70;99.90;;;;;;5114978;27;20500;-64
2022/08/20 01:54:27;;;;;;;20.08;15.32;;;17.80;99.90;;;;;;5116885;27;20580;-65
2022/08/20 01:56:58;;;;;;;20.92;15.27;;;17.80;99.90;;;;;;5110632;27;20508;-65
2022/08/20 01:59:26;;;;;;;18.85;14.50;;;17.70;99.90;;;;;;5104301;27;20050;-64
2022/08/20 02:01:54;;;;;;;17.52;14.85;;;17.80;99.90;;;;;;5105367;27;20040;-64
2022/08/20 02:04:22;;;;;;;14.68;13.02;;;17.70;99.90;;;;;;5107642;27;20127;-65
2022/08/20 02:06:53;;;;;;;16.88;13.23;;;17.70;99.90;;;;;;5108015;27;20492;-64
2022/08/20 02:09:28;;;;;;;17.10;13.63;;;17.80;99.90;;;;;;5124897;27;20226;-64
2022/08/20 02:11:57;;;;;;;18.93;14.50;;;17.80;99.90;;;;;;5124085;27;20453;-63
2022/08/20 02:14:25;;;;;;;17.17;13.32;;;17.80;99.90;;;;;;5126707;27;20047;-64
2022/08/20 02:16:57;;;;;;;16.13;13.38;;;17.80;99.90;;;;;;5129123;27;20070;-62
2022/08/20 02:19:41;;;;;;;14.55;12.30;;;17.80;99.90;;;;;;5111438;27;20510;-63
2022/08/20 02:22:34;;;;;;;14.27;12.13;;;17.80;99.90;;;;;;5098300;27;20047;-64
2022/08/20 02:25:06;;;;;;;15.13;12.23;;;17.80;99.90;;;;;;5106726;27;20351;-64
2022/08/20 02:27:34;;;;;;;13.00;10.90;;;17.80;99.90;;;;;;5097875;27;20185;-65
2022/08/20 02:30:09;;;;;;;16.42;12.73;;;17.80;99.90;;;;;;5109628;27;20069;-64
2022/08/20 02:32:47;;;;;;;14.63;11.73;;;17.70;99.90;;;;;;5108396;27;20043;-64
2022/08/20 02:35:14;;;;;;;15.82;12.15;;;17.70;99.90;;;;;;5097584;27;20051;-64
2022/08/20 02:37:44;;;;;;;15.82;12.60;;;17.70;99.90;;;;;;5111236;27;20047;-66
2022/08/20 02:40:17;;;;;;;16.23;13.68;;;17.60;99.90;;;;;;5107052;27;20197;-64
2022/08/20 02:42:58;;;;;;;16.38;14.27;;;17.60;99.90;;;;;;5112236;27;20097;-63
2022/08/20 02:45:26;;;;;;;17.52;14.52;;;17.70;99.90;;;;;;5114601;27;20143;-64
2022/08/20 02:47:55;;;;;;;19.95;15.10;;;17.70;99.90;;;;;;5112510;27;20103;-64
2022/08/20 02:50:24;;;;;;;18.90;14.57;;;17.70;99.90;;;;;;5109997;27;20102;-64
2022/08/20 02:52:52;;;;;;;17.48;14.77;;;17.60;99.90;;;;;;5103456;27;20031;-64
2022/08/20 02:55:22;;;;;;;19.65;15.07;;;17.70;99.90;;;;;;5108017;27;20074;-64
2022/08/20 02:57:59;;;;;;;18.88;15.23;;;17.60;99.90;;;;;;5095695;28;20058;-63
2022/08/20 03:00:30;;;;;;;22.02;15.68;;;17.60;99.90;;;;;;5110344;27;20132;-63
2022/08/20 03:03:09;;;;;;;21.10;15.98;;;17.60;99.90;;;;;;5097951;27;20412;-63
2022/08/20 03:05:38;;;;;;;19.88;15.75;;;17.60;99.90;;;;;;5101938;28;20097;-63
2022/08/20 03:08:07;;;;;;;21.83;15.60;;;17.60;99.90;;;;;;5101024;27;20043;-63
2022/08/20 03:10:38;;;;;;;20.83;15.55;;;17.60;99.90;;;;;;5112777;27;20071;-63
2022/08/20 03:13:11;;;;;;;21.00;15.23;;;17.60;99.90;;;;;;5111483;27;20043;-63
2022/08/20 03:15:42;;;;;;;21.73;16.13;;;17.60;99.90;;;;;;5111406;27;20518;-63
2022/08/20 03:18:10;;;;;;;21.23;16.13;;;17.60;99.90;;;;;;5106424;27;20981;-64
2022/08/20 03:20:38;;;;;;;21.88;16.25;;;17.60;99.90;;;;;;5099990;28;20063;-63
2022/08/20 03:23:06;;;;;;;19.85;15.75;;;17.60;99.90;;;;;;5112155;28;20146;-63
2022/08/20 03:25:33;;;;;;;21.10;16.10;;;17.60;99.90;;;;;;5120437;28;20493;-64
2022/08/20 03:28:00;;;;;;;21.85;15.77;;;17.60;99.90;;;;;;5120954;28;20143;-64
2022/08/20 03:30:29;;;;;;;18.92;15.07;;;17.60;99.90;;;;;;5108146;28;20572;-64
2022/08/20 03:32:56;;;;;;;19.20;15.48;;;17.60;99.90;;;;;;5098556;28;20052;-64
2022/08/20 03:35:25;;;;;;;22.10;15.48;;;17.60;99.90;;;;;;5118610;28;20044;-65
2022/08/20 03:37:54;;;;;;;22.27;16.02;;;17.70;99.90;;;;;;5097408;28;20401;-63
2022/08/20 03:40:29;;;;;;;18.20;15.13;;;17.60;99.90;;;;;;5109001;28;20532;-64
2022/08/20 03:42:57;;;;;;;18.48;14.60;;;17.60;99.90;;;;;;5100083;27;20509;-64
2022/08/20 03:45:26;;;;;;;19.38;15.35;;;17.60;99.90;;;;;;5108521;28;20509;-64
2022/08/20 03:47:54;;;;;;;18.38;15.77;;;17.60;99.90;;;;;;5109619;28;20122;-63
2022/08/20 03:50:26;;;;;;;19.58;15.70;;;17.60;99.90;;;;;;5109899;28;20044;-64
2022/08/20 03:52:54;;;;;;;20.98;15.88;;;17.60;99.90;;;;;;5104077;28;20038;-63
2022/08/20 03:55:23;;;;;;;23.00;16.38;;;17.60;99.90;;;;;;5103846;28;20031;-64
2022/08/20 03:57:53;;;;;;;20.10;16.27;;;17.60;99.90;;;;;;5116257;28;20483;-64
2022/08/20 04:00:26;;;;;;;19.65;16.23;;;17.60;99.90;;;;;;5109941;28;20472;-64
2022/08/20 04:02:55;;;;;;;23.30;16.98;;;17.60;99.90;;;;;;5109704;27;20043;-65
2022/08/20 04:05:24;;;;;;;20.75;17.00;;;17.60;99.90;;;;;;5101410;28;20043;-64
2022/08/20 04:07:56;;;;;;;21.33;15.80;;;17.60;99.90;;;;;;5114902;27;20105;-64
2022/08/20 04:10:30;;;;;;;20.20;16.17;;;17.60;99.90;;;;;;5114845;27;20105;-64
2022/08/20 04:12:58;;;;;;;21.67;16.60;;;17.60;99.90;;;;;;5121826;27;20043;-64
2022/08/20 04:15:27;;;;;;;25.75;17.08;;;17.60;99.90;;;;;;5117105;27;20044;-64
2022/08/20 04:17:55;;;;;;;21.38;17.15;;;17.60;99.90;;;;;;5112186;27;20291;-64
2022/08/20 04:20:24;;;;;;;23.00;17.50;;;17.60;99.90;;;;;;5104457;27;20042;-64
2022/08/20 04:22:54;;;;;;;19.77;15.73;;;17.70;99.90;;;;;;5114745;27;20100;-63
2022/08/20 04:25:27;;;;;;;18.52;15.40;;;17.60;99.90;;;;;;5111116;27;20158;-64
2022/08/20 04:27:57;;;;;;;19.80;15.73;;;17.60;99.90;;;;;;5122887;27;20501;-64
2022/08/20 04:30:26;;;;;;;21.65;16.95;;;17.60;99.90;;;;;;5127249;27;20795;-64
2022/08/20 04:32:54;;;;;;;21.90;16.73;;;17.60;99.90;;;;;;5106167;27;20054;-64
2022/08/20 04:35:25;;;;;;;17.88;15.27;;;17.60;99.90;;;;;;5120761;27;20751;-64
2022/08/20 04:38:05;;;;;;;20.05;15.82;;;17.60;99.90;;;;;;5116207;27;20054;-63
2022/08/20 04:40:53;;;;;;;20.65;16.60;;;17.60;99.90;;;;;;5110472;27;20044;-65
2022/08/20 04:43:25;;;;;;;23.00;16.77;;;17.70;99.90;;;;;;5097597;27;20127;-64
2022/08/20 04:45:54;;;;;;;20.33;14.70;;;17.70;99.90;;;;;;5110852;27;20119;-64
2022/08/20 04:48:22;;;;;;;20.60;15.98;;;17.80;99.90;;;;;;5101473;28;20142;-64
2022/08/20 04:50:52;;;;;;;17.83;14.35;;;17.80;99.90;;;;;;5111397;27;20067;-64
2022/08/20 04:53:24;;;;;;;22.27;16.80;;;17.80;99.90;;;;;;5112334;27;20575;-63
2022/08/20 04:55:54;;;;;;;19.88;15.52;;;17.80;99.90;;;;;;5110654;27;20034;-63
2022/08/20 04:58:26;;;;;;;21.67;17.55;;;17.80;99.90;;;;;;5113685;27;20043;-65
2022/08/20 05:00:54;;;;;;;;;;;17.80;99.90;;;;;;5117603;27;20043;-64
2022/08/20 05:03:27;;;;;;;20.38;15.88;;;17.90;99.90;;;;;;5122766;27;19923;-64
2022/08/20 05:05:55;;;;;;;20.02;16.73;;;17.90;99.90;;;;;;5100080;27;20151;-64
2022/08/20 05:08:24;;;;;;;23.65;18.33;;;17.90;99.90;;;;;;5125926;27;20039;-63
2022/08/20 05:10:53;;;;;;;22.15;17.88;;;17.90;99.90;;;;;;5129394;27;20468;-64
2022/08/20 05:13:41;;;;;;;21.55;17.05;;;17.80;99.90;;;;;;5131398;27;20401;-64
2022/08/20 05:16:08;;;;;;;22.42;18.15;;;17.90;99.90;;;;;;5108998;27;20043;-64
2022/08/20 05:18:36;;;;;;;25.77;18.08;;;17.90;99.90;;;;;;5092868;27;20131;-64
2022/08/20 05:21:06;;;;;;;23.33;18.58;;;17.90;99.90;;;;;;5110626;27;20054;-64
2022/08/20 05:23:41;;;;;;;21.35;17.42;;;17.90;99.90;;;;;;5107115;27;20070;-64
2022/08/20 05:26:10;;;;;;;24.83;19.13;;;17.90;99.90;;;;;;5119169;27;20150;-64
2022/08/20 05:28:39;;;;;;;22.85;18.58;;;18.00;99.90;;;;;;5121960;27;20074;-64
2022/08/20 05:31:28;;;;;;;24.92;19.55;;;18.00;99.90;;;;;;5099819;27;20501;-63
2022/08/20 05:34:08;;;;;;;26.88;20.10;;;18.00;99.90;;;;;;5113415;27;20039;-63
2022/08/20 05:36:40;;;;;;;22.65;19.23;;;18.00;99.90;;;;;;5101651;27;20079;-64
2022/08/20 05:39:08;;;;;;;25.27;19.92;;;18.00;99.90;;;;;;5109579;27;20509;-63
2022/08/20 05:41:37;;;;;;;25.33;20.23;;;18.00;99.90;;;;;;5105795;27;20417;-65
2022/08/20 05:44:09;;;;;;;25.52;20.15;;;18.10;99.90;;;;;;5113256;27;20051;-63
2022/08/20 05:46:40;;;;;;;23.67;19.80;;;18.10;99.90;;;;;;5109151;27;20039;-65
2022/08/20 05:49:08;;;;;;;24.02;19.27;;;18.20;99.90;;;;;;5110452;27;20147;-64
2022/08/20 05:51:36;;;;;;;23.42;19.48;;;18.20;99.90;;;;;;5110818;27;20142;-64
2022/08/20 05:54:04;;;;;;;26.75;20.73;;;18.20;99.90;;;;;;5116367;27;20036;-63
2022/08/20 05:56:32;;;;;;;29.30;22.60;;;18.20;99.90;;;;;;5114273;27;20473;-64
2022/08/20 05:59:03;;;;;;;25.40;21.00;;;18.30;99.90;;;;;;5123930;27;20114;-64
2022/08/20 06:01:33;;;;;;;30.58;22.02;;;18.30;99.90;;;;;;5123639;27;20560;-64
2022/08/20 06:06:47;;;;;;;29.45;22.70;;;18.40;99.90;;;;;;5106525;27;20351;-64
2022/08/20 06:09:16;;;;;;;27.55;21.17;;;18.50;99.90;;;;;;5117826;27;20052;-64
2022/08/20 06:12:04;;;;;;;32.40;23.48;;;18.50;99.90;;;;;;5104922;27;20046;-64
2022/08/20 06:14:32;;;;;;;30.33;23.52;;;18.60;99.90;;;;;;5105823;27;20489;-64
2022/08/20 06:17:05;;;;;;;30.25;23.38;;;18.50;99.90;;;;;;5107389;27;20061;-65
2022/08/20 06:19:33;;;;;;;30.85;24.65;;;18.50;99.90;;;;;;5117282;27;20071;-65
2022/08/20 06:22:02;;;;;;;27.73;22.02;;;18.50;99.90;;;;;;5119056;27;20039;-64
2022/08/20 06:24:47;;;;;;;29.83;23.20;;;18.60;99.90;;;;;;5113341;27;20039;-64
2022/08/20 06:27:18;;;;;;;26.60;21.20;;;18.70;99.90;;;;;;5125139;27;20046;-64
2022/08/20 06:29:45;;;;;;;25.80;20.60;;;18.80;99.90;;;;;;5117930;27;20565;-64
2022/08/20 06:32:13;;;;;;;28.83;22.52;;;18.90;99.90;;;;;;5120981;27;20546;-64
2022/08/20 06:34:41;;;;;;;28.95;22.13;;;19.10;99.90;;;;;;5109570;27;20050;-65
2022/08/20 06:37:20;;;;;;;26.77;21.67;;;19.10;99.90;;;;;;5109783;27;20211;-64
2022/08/20 06:39:48;;;;;;;23.65;20.17;;;19.10;99.90;;;;;;5109761;27;20108;-65
2022/08/20 06:42:16;;;;;;;26.00;19.90;;;19.10;99.90;;;;;;5118436;27;20142;-64
2022/08/20 06:44:49;;;;;;;25.98;20.50;;;19.00;99.90;;;;;;5124932;27;20488;-64
2022/08/20 06:47:19;;;;;;;26.20;21.58;;;19.10;99.90;;;;;;5110586;27;20489;-64
2022/08/20 06:49:47;;;;;;;24.38;21.02;;;19.10;99.90;;;;;;5102527;27;20078;-65
2022/08/20 06:52:16;;;;;;;27.08;21.83;;;19.20;99.90;;;;;;5111161;27;20088;-64
2022/08/20 06:54:45;;;;;;;27.80;22.40;;;19.20;99.90;;;;;;5103491;27;20524;-64
2022/08/20 06:57:12;;;;;;;25.73;21.33;;;19.40;99.90;;;;;;5110607;27;20035;-64
2022/08/20 06:59:40;;;;;;;25.92;20.08;;;19.50;99.90;;;;;;5103238;27;20047;-64
2022/08/20 07:02:07;;;;;;;26.52;19.98;;;19.40;99.90;;;;;;5100666;28;20126;-65
2022/08/20 07:04:36;;;;;;;27.92;21.42;;;19.30;99.90;;;;;;5097367;27;20488;-64
2022/08/20 07:07:03;;;;;;;23.55;20.10;;;19.40;99.90;;;;;;5107919;27;20491;-63
2022/08/20 07:09:31;;;;;;;30.45;21.42;;;19.40;99.90;;;;;;5115947;27;20065;-64
2022/08/20 07:11:58;;;;;;;28.58;20.38;;;19.40;99.90;;;;;;5123629;27;20039;-63
2022/08/20 07:14:25;;;;;;;25.10;21.25;;;19.50;99.90;;;;;;5114483;27;20044;-64
2022/08/20 07:16:53;;;;;;;27.98;20.55;;;19.70;99.90;;;;;;5124359;27;20051;-64
2022/08/20 07:19:20;;;;;;;26.15;20.80;;;19.70;99.90;;;;;;5112488;27;20175;-63
2022/08/20 07:21:48;;;;;;;26.50;20.27;;;19.80;99.90;;;;;;5124830;27;20071;-64
2022/08/20 07:24:15;;;;;;;24.42;18.65;;;20.00;99.90;;;;;;5117323;27;20126;-63
2022/08/20 07:26:42;;;;;;;21.75;19.45;;;20.30;99.90;;;;;;5105153;28;20506;-63
2022/08/20 07:29:10;;;;;;;22.45;19.30;;;20.60;99.90;;;;;;5108792;28;20036;-63
2022/08/20 07:34:25;;;;;;;21.33;18.60;;;20.90;99.90;;;;;;5096511;28;20229;-64
2022/08/20 07:36:57;;;;;;;21.73;18.10;;;20.80;99.90;;;;;;5102226;28;20195;-63
2022/08/20 07:39:25;;;;;;;22.63;19.30;;;20.80;99.90;;;;;;5112221;28;20051;-65
2022/08/20 07:42:02;;;;;;;23.90;19.10;;;20.70;99.90;;;;;;5101076;28;20079;-64
2022/08/20 07:44:29;;;;;;;23.80;18.50;;;21.00;99.90;;;;;;5114983;27;20375;-65
2022/08/20 07:46:58;;;;;;;26.85;18.08;;;21.00;99.90;;;;;;5110135;27;20108;-63
2022/08/20 07:49:25;;;;;;;22.55;18.67;;;21.20;99.90;;;;;;5117798;27;20047;-64
2022/08/20 07:51:53;;;;;;;22.20;18.60;;;21.20;99.90;;;;;;5113654;27;20068;-64
2022/08/20 07:54:20;;;;;;;21.30;17.50;;;20.90;99.90;;;;;;5101578;27;20088;-64
2022/08/20 07:56:48;;;;;;;17.83;15.93;;;20.90;99.90;;;;;;5109611;27;20136;-64
2022/08/20 07:59:15;;;;;;;21.10;17.65;;;21.00;99.90;;;;;;5117410;27;20579;-63
2022/08/20 08:01:43;;;;;;;21.48;17.48;;;20.90;99.90;;;;;;5126255;27;20047;-64
2022/08/20 08:04:10;;;;;;;20.48;17.38;;;20.80;99.90;;;;;;5119655;27;20530;-65
2022/08/20 08:06:38;;;;;;;19.20;16.02;;;20.80;99.90;;;;;;5102342;27;20138;-64
2022/08/20 08:09:13;;;;;;;19.13;16.40;;;20.60;99.90;;;;;;5114712;27;20261;-64
2022/08/20 08:11:43;;;;;;;19.13;16.13;;;20.60;99.90;;;;;;5110342;27;20043;-65
2022/08/20 08:14:18;;;;;;;20.42;17.58;;;20.70;99.90;;;;;;5117167;27;20054;-64
2022/08/20 08:16:45;;;;;;;;;;;20.70;99.90;;;;;;5123385;27;20068;-65
2022/08/20 08:19:16;;;;;;;19.92;17.60;;;20.60;99.90;;;;;;5106211;27;19928;-64
2022/08/20 08:21:44;;;;;;;19.80;17.50;;;20.50;99.90;;;;;;5110474;27;20139;-64
2022/08/20 08:24:12;;;;;;;18.70;16.65;;;20.60;99.90;;;;;;5113721;27;20134;-64
2022/08/20 08:26:48;;;;;;;17.95;16.13;;;20.70;99.90;;;;;;5113103;27;20525;-64
2022/08/20 08:29:16;;;;;;;21.30;17.00;;;20.70;99.90;;;;;;5108498;27;20040;-63
2022/08/20 08:31:43;;;;;;;18.95;16.27;;;20.50;99.90;;;;;;5124934;27;20047;-63
2022/08/20 08:34:11;;;;;;;17.33;15.52;;;20.60;99.90;;;;;;5110285;28;20561;-63
2022/08/20 08:36:39;;;;;;;18.95;15.90;;;20.50;99.90;;;;;;5102565;27;20498;-65
2022/08/20 08:39:07;;;;;;;19.05;15.68;;;20.50;99.90;;;;;;5115358;27;20150;-63
2022/08/20 08:41:46;;;;;;;18.13;15.55;;;20.60;99.90;;;;;;5104180;27;20052;-64
2022/08/20 08:44:20;;;;;;;19.15;15.45;;;20.60;99.90;;;;;;5115467;27;20054;-63
2022/08/20 08:46:51;;;;;;;18.40;15.75;;;20.60;99.90;;;;;;5100572;27;20047;-65
2022/08/20 08:49:25;;;;;;;18.10;14.15;;;20.70;99.90;;;;;;5114562;27;20049;-64
2022/08/20 08:52:10;;;;;;;18.67;15.82;;;20.90;99.90;;;;;;5099605;27;20431;-64
2022/08/20 08:54:43;;;;;;;17.92;15.57;;;21.00;99.90;;;;;;5110917;27;20074;-64
2022/08/20 08:57:10;;;;;;;19.10;15.18;;;20.90;99.90;;;;;;5113821;27;20491;-64
2022/08/20 08:59:38;;;;;;;17.95;15.23;;;21.20;99.90;;;;;;5103218;27;20076;-64
2022/08/20 09:02:27;;;;;;;21.48;16.48;;;21.40;99.90;;;;;;5114932;27;20478;-64
2022/08/20 09:04:56;;;;;;;18.15;15.82;;;21.40;99.90;;;;;;5118361;27;20666;-63
2022/08/20 09:07:31;;;;;;;17.60;14.95;;;21.70;99.90;;;;;;5112472;27;20460;-63
2022/08/20 09:10:00;;;;;;;18.63;16.15;;;21.90;99.90;;;;;;5114314;27;20181;-64
2022/08/20 09:12:27;;;;;;;18.45;16.48;;;22.00;99.90;;;;;;5103857;27;20054;-64
2022/08/20 09:14:54;;;;;;;17.02;14.45;;;22.20;99.90;;;;;;5110857;27;20446;-64
2022/08/20 09:17:22;;;;;;;15.13;13.52;;;22.30;99.90;;;;;;5113614;27;20157;-64
2022/08/20 09:19:51;;;;;;;16.77;14.27;;;22.30;99.90;;;;;;5122438;27;20123;-64
2022/08/20 09:22:21;;;;;;;20.77;15.00;;;22.30;99.90;;;;;;5118973;27;20050;-63
2022/08/20 09:24:49;;;;;;;17.85;15.93;;;22.40;99.90;;;;;;5120252;27;20047;-63
2022/08/20 09:27:17;;;;;;;18.42;15.05;;;22.60;99.90;;;;;;5121012;27;20639;-65
2022/08/20 09:29:45;;;;;;;17.13;14.45;;;22.60;99.90;;;;;;5117537;27;20116;-65
2022/08/20 09:32:20;;;;;;;20.38;15.98;;;22.70;99.90;;;;;;5117584;27;20653;-64
2022/08/20 09:34:54;;;;;;;18.85;15.73;;;22.70;99.90;;;;;;5111204;27;20067;-64
2022/08/20 09:37:24;;;;;;;19.63;14.23;;;22.70;99.90;;;;;;5118909;27;20096;-64
2022/08/20 09:39:52;;;;;;;19.08;16.75;;;22.70;99.90;;;;;;5104106;27;20047;-66
2022/08/20 09:42:28;;;;;;;18.35;16.38;;;23.00;99.90;;;;;;5103962;27;20552;-65
2022/08/20 09:44:58;;;;;;;17.38;15.10;;;23.20;99.90;;;;;;5109012;27;20044;-64
2022/08/20 09:47:26;;;;;;;16.95;14.52;;;23.30;99.90;;;;;;5113561;27;20390;-64
2022/08/20 09:49:53;;;;;;;18.08;15.73;;;23.60;99.90;;;;;;5121706;27;20108;-64
2022/08/20 09:52:28;;;;;;;16.48;14.75;;;23.50;99.90;;;;;;5109487;27;20040;-64
2022/08/20 09:55:01;;;;;;;18.83;16.25;;;23.20;99.90;;;;;;5112478;27;20541;-65
2022/08/20 09:57:30;;;;;;;18.05;15.90;;;23.40;99.90;;;;;;5114731;27;20047;-64
2022/08/20 10:00:01;;;;;;;19.15;14.88;;;23.40;99.90;;;;;;5117941;27;20286;-65
2022/08/20 10:02:38;;;;;;;18.35;13.77;;;23.40;99.90;;;;;;5117463;27;20411;-64
2022/08/20 10:05:06;;;;;;;20.25;13.82;;;23.60;99.90;;;;;;5107339;28;20462;-63
2022/08/20 10:07:38;;;;;;;;;;;23.40;99.90;;;;;;5119274;27;20050;-65
2022/08/20 10:10:08;;;;;;;18.02;15.32;;;23.20;99.90;;;;;;5125062;27;19968;-64
2022/08/20 10:12:35;;;;;;;17.17;15.38;;;22.70;99.90;;;;;;5121200;27;20163;-65
2022/08/20 10:15:03;;;;;;;17.20;14.77;;;22.80;99.90;;;;;;5124825;27;20047;-63
2022/08/20 10:17:30;;;;;;;18.80;16.20;;;23.00;99.90;;;;;;5119570;27;20137;-64
2022/08/20 10:19:58;;;;;;;25.35;16.15;;;22.70;99.90;;;;;;5124712;27;20639;-64
2022/08/20 10:22:26;;;;;;;17.85;15.52;;;22.60;99.90;;;;;;5121898;27;20070;-65
2022/08/20 10:24:53;;;;;;;19.98;14.95;;;23.00;99.90;;;;;;5119552;27;20169;-63
2022/08/20 10:27:20;;;;;;;17.45;14.70;;;23.00;99.90;;;;;;5123077;27;20046;-65
2022/08/20 10:29:48;;;;;;;18.42;15.15;;;23.20;99.90;;;;;;5123955;27;20497;-63
2022/08/20 10:32:16;;;;;;;19.02;15.27;;;23.30;99.90;;;;;;5110441;27;20067;-65
2022/08/20 10:34:44;;;;;;;16.58;14.50;;;23.40;99.90;;;;;;5117282;27;20102;-65
2022/08/20 10:37:20;;;;;;;18.08;14.90;;;23.40;99.90;;;;;;5104295;28;20046;-64
2022/08/20 10:39:48;;;;;;;19.58;15.07;;;23.70;99.90;;;;;;5102159;27;20109;-64
2022/08/20 10:42:15;;;;;;;17.05;15.27;;;23.90;99.90;;;;;;5105779;28;20117;-64
2022/08/20 10:44:43;;;;;;;19.67;15.48;;;24.00;99.90;;;;;;5109174;27;20054;-65
2022/08/20 10:47:24;;;;;;;20.52;15.13;;;24.10;99.90;;;;;;5106869;27;20538;-64
2022/08/20 10:49:54;;;;;;;18.95;15.93;;;23.90;99.90;;;;;;5100155;27;20048;-65
2022/08/20 10:52:22;;;;;;;16.38;14.65;;;23.90;99.90;;;;;;5111641;27;20486;-65
2022/08/20 10:54:51;;;;;;;16.23;14.45;;;24.00;99.90;;;;;;5114706;27;20067;-66
2022/08/20 10:57:21;;;;;;;19.30;15.52;;;24.20;99.90;;;;;;5111364;27;20078;-65
2022/08/20 10:59:50;;;;;;;18.17;15.05;;;24.50;99.90;;;;;;5115712;27;20506;-66
2022/08/20 11:02:19;;;;;;;23.20;15.10;;;24.60;99.90;;;;;;5101871;27;20602;-64
2022/08/20 11:04:47;;;;;;;16.70;14.90;;;24.90;99.90;;;;;;5089613;28;20390;-65
2022/08/20 11:07:23;;;;;;;17.55;14.13;;;25.20;99.90;;;;;;5110965;27;20044;-66
2022/08/20 11:10:10;;;;;;;19.20;16.08;;;25.20;99.90;;;;;;5114387;27;20047;-64
2022/08/20 11:12:40;;;;;;;19.17;15.10;;;25.30;99.90;;;;;;5098595;27;20044;-64
2022/08/20 11:15:10;;;;;;;19.63;15.85;;;25.40;99.90;;;;;;5106607;28;20122;-64
2022/08/20 11:17:40;;;;;;;17.85;14.25;;;25.50;99.90;;;;;;5110936;27;20159;-65
2022/08/20 11:20:13;;;;;;;18.98;13.40;;;25.90;99.90;;;;;;5104900;27;20058;-65
2022/08/20 11:22:40;;;;;;;19.50;14.90;;;26.10;99.90;;;;;;5110607;27;20410;-65
2022/08/20 11:25:08;;;;;;;18.90;14.60;;;26.10;99.90;;;;;;5104245;28;20066;-65
2022/08/20 11:27:39;;;;;;;16.50;14.77;;;25.90;99.90;;;;;;5110544;28;20150;-64
2022/08/20 11:30:10;;;;;;;16.58;14.88;;;26.20;99.90;;;;;;5106073;27;20047;-65
2022/08/20 11:32:37;;;;;;;15.82;14.18;;;26.50;99.90;;;;;;5118548;28;20055;-64
2022/08/20 11:35:05;;;;;;;18.33;16.33;;;26.50;99.90;;;;;;5093606;28;20056;-64
2022/08/20 11:37:55;;;;;;;16.45;14.73;;;26.70;99.90;;;;;;5101401;28;20127;-65
2022/08/20 11:40:24;;;;;;;17.23;14.45;;;26.80;99.90;;;;;;5099303;27;20044;-65
2022/08/20 11:42:51;;;;;;;19.45;15.50;;;27.10;99.90;;;;;;5109156;28;20047;-65
2022/08/20 11:45:39;;;;;;;21.48;15.93;;;27.00;99.90;;;;;;5108242;28;20111;-65
2022/08/20 11:48:06;;;;;;;17.50;15.60;;;26.90;99.90;;;;;;5118818;28;20098;-65
2022/08/20 11:50:33;;;;;;;19.95;15.95;;;27.10;99.90;;;;;;5118121;28;20476;-65
2022/08/20 11:53:01;;;;;;;16.52;14.85;;;27.30;99.90;;;;;;5094936;28;20039;-65
2022/08/20 11:55:28;;;;;;;17.90;15.15;;;27.40;99.90;;;;;;5118801;28;20047;-65
2022/08/20 11:57:57;;;;;;;20.20;15.95;;;27.90;99.90;;;;;;5094176;28;20150;-65
2022/08/20 12:00:29;;;;;;;16.85;15.05;;;28.20;99.90;;;;;;5118967;28;20043;-66
2022/08/20 12:03:00;;;;;;;20.10;16.10;;;28.10;99.90;;;;;;5093943;28;20436;-65
2022/08/20 12:05:28;;;;;;;19.20;17.13;;;27.20;99.90;;;;;;5099679;28;20082;-65
2022/08/20 12:07:58;;;;;;;18.05;16.00;;;26.40;99.90;;;;;;5100433;28;20044;-66
2022/08/20 12:10:27;;;;;;;17.40;15.50;;;26.20;99.90;;;;;;5098729;28;20039;-64
2022/08/20 12:12:55;;;;;;;22.52;17.98;;;26.00;99.90;;;;;;5103302;28;20538;-64
2022/08/20 12:15:24;;;;;;;20.45;17.30;;;25.50;99.90;;;;;;5098546;28;20043;-67
2022/08/20 12:17:52;;;;;;;20.35;16.02;;;25.50;99.90;;;;;;5110645;28;20603;-64
2022/08/20 12:20:19;;;;;;;20.50;17.70;;;25.60;99.90;;;;;;5107284;27;20131;-65
2022/08/20 12:22:46;;;;;;;21.73;17.35;;;25.40;99.90;;;;;;5097843;28;20467;-65
2022/08/20 12:25:14;;;;;;;17.45;15.68;;;25.30;99.90;;;;;;5110328;28;20413;-67
2022/08/20 12:27:41;;;;;;;22.23;18.05;;;25.10;99.90;;;;;;5099980;28;20458;-66
2022/08/20 12:30:12;;;;;;;20.00;17.27;;;24.80;99.90;;;;;;5114976;27;20159;-65
2022/08/20 12:32:41;;;;;;;22.00;17.15;;;24.40;99.90;;;;;;5123280;27;20478;-66
2022/08/20 12:35:09;;;;;;;21.98;16.60;;;24.30;99.90;;;;;;5097770;27;20236;-65
2022/08/20 12:37:37;;;;;;;21.95;15.52;;;24.30;99.90;;;;;;5111521;27;20108;-65
2022/08/20 12:40:08;;;;;;;22.33;16.95;;;24.20;99.90;;;;;;5113107;27;20035;-64
2022/08/20 12:42:36;;;;;;;21.58;17.13;;;24.20;99.90;;;;;;5108722;27;20035;-66
2022/08/20 12:45:04;;;;;;;22.13;17.85;;;24.20;99.90;;;;;;5104271;27;20046;-65
2022/08/20 12:47:34;;;;;;;20.73;16.13;;;24.10;99.90;;;;;;5106745;27;20037;-66
2022/08/20 12:50:06;;;;;;;20.70;16.13;;;24.00;99.90;;;;;;5113426;27;20043;-66
2022/08/20 12:52:35;;;;;;;16.77;14.98;;;23.90;99.90;;;;;;5107872;27;20035;-66
2022/08/20 12:55:03;;;;;;;20.88;15.25;;;23.80;99.90;;;;;;5115633;27;21022;-66